Time;durP1;ratioP1;P1;durP2;ratioP2;P2;SDS_P1;SDS_P2;PMS_P1;PMS_P2;Temp;Humidity;BMP_temperature;BMP_pressure;BME280_temperature;BME280_humidity;BME280_pressure;Samples;Min_cycle;Max_cycle;Signal;HPM_P1;HPM_P2
2022/05/07 00:01:51;;;;;;;98.00;52.30;;;9.30;99.90;;;;;;5015307;28;20064;-67
2022/05/07 00:04:17;;;;;;;95.13;48.85;;;9.30;99.90;;;;;;5015424;28;20079;-68
2022/05/07 00:06:42;;;;;;;90.00;48.63;;;9.40;99.90;;;;;;5015213;28;20107;-68
2022/05/07 00:09:08;;;;;;;93.60;50.78;;;9.40;99.90;;;;;;5015104;28;20045;-68
2022/05/07 00:11:33;;;;;;;96.07;49.35;;;9.40;99.90;;;;;;5015151;28;20030;-68
2022/05/07 00:13:59;;;;;;;95.95;51.67;;;9.40;99.90;;;;;;5014816;28;20105;-68
2022/05/07 00:19:17;;;;;;;101.80;54.35;;;9.50;99.90;;;;;;4999179;28;20114;-68
2022/05/07 00:21:43;;;;;;;104.05;51.28;;;9.50;99.90;;;;;;5029895;28;20030;-68
2022/05/07 00:24:08;;;;;;;115.00;55.05;;;9.50;99.90;;;;;;5014851;28;20041;-68
2022/05/07 00:26:34;;;;;;;102.38;54.55;;;9.60;99.90;;;;;;5015098;28;20132;-68
2022/05/07 00:28:59;;;;;;;91.32;52.42;;;9.60;99.90;;;;;;5015345;28;20033;-68
2022/05/07 00:31:25;;;;;;;116.72;55.47;;;9.60;99.90;;;;;;5014599;28;20033;-68
2022/05/07 00:33:51;;;;;;;123.40;56.90;;;9.80;99.90;;;;;;5015160;28;20017;-68
2022/05/07 00:36:16;;;;;;;134.23;59.65;;;9.80;99.90;;;;;;5013625;28;20026;-67
2022/05/07 00:38:42;;;;;;;103.57;55.63;;;10.00;99.90;;;;;;5014453;28;20018;-68
2022/05/07 00:41:07;;;;;;;120.78;57.05;;;10.00;99.90;;;;;;5014861;28;20524;-67
2022/05/07 00:43:37;;;;;;;119.55;58.92;;;10.10;99.90;;;;;;5014490;28;20026;-68
2022/05/07 00:46:04;;;;;;;110.53;59.05;;;10.10;99.90;;;;;;5013785;28;20486;-68
2022/05/07 00:48:31;;;;;;;116.72;57.67;;;10.10;99.90;;;;;;5014513;28;20049;-68
2022/05/07 00:53:41;;;;;;;111.22;55.95;;;10.20;99.90;;;;;;5014237;28;20075;-68
2022/05/07 00:56:08;;;;;;;112.10;59.30;;;10.20;99.90;;;;;;5014765;28;20053;-68
2022/05/07 00:58:34;;;;;;;119.93;58.92;;;10.20;99.90;;;;;;5014321;28;20018;-68
2022/05/07 01:01:00;;;;;;;106.32;56.97;;;10.30;99.90;;;;;;5014100;28;20473;-68
2022/05/07 01:03:26;;;;;;;108.03;57.50;;;10.30;99.90;;;;;;5013995;28;20061;-68
2022/05/07 01:05:53;;;;;;;107.53;55.95;;;10.30;99.90;;;;;;5014442;28;20382;-68
2022/05/07 01:08:20;;;;;;;118.13;57.97;;;10.40;99.90;;;;;;5014131;28;20022;-68
2022/05/07 01:10:46;;;;;;;112.85;60.03;;;10.40;99.90;;;;;;5013925;28;20054;-68
2022/05/07 01:13:12;;;;;;;107.88;54.50;;;10.40;99.90;;;;;;5014668;28;20111;-68
2022/05/07 01:15:45;;;;;;;116.82;59.78;;;10.40;99.90;;;;;;5029031;28;20486;-67
2022/05/07 01:18:15;;;;;;;93.40;52.25;;;10.40;99.90;;;;;;5013629;28;20017;-68
2022/05/07 01:20:41;;;;;;;122.22;59.20;;;10.40;99.90;;;;;;5014006;28;20030;-68
2022/05/07 01:23:08;;;;;;;114.95;58.67;;;10.40;99.90;;;;;;5013928;28;20532;-68
2022/05/07 01:25:33;;;;;;;101.93;52.17;;;10.50;99.90;;;;;;5013496;28;20042;-68
2022/05/07 01:27:59;;;;;;;111.88;56.22;;;10.50;99.90;;;;;;5014153;28;20034;-68
2022/05/07 01:30:25;;;;;;;107.43;55.33;;;10.50;99.90;;;;;;5014092;28;20100;-68
2022/05/07 01:32:50;;;;;;;107.70;53.55;;;10.50;99.90;;;;;;5014263;28;20033;-68
2022/05/07 01:35:16;;;;;;;93.70;52.13;;;10.50;99.90;;;;;;5013702;28;20053;-68
2022/05/07 01:37:42;;;;;;;113.97;55.28;;;10.60;99.90;;;;;;5013279;28;20028;-67
2022/05/07 01:40:08;;;;;;;102.75;50.40;;;10.60;99.90;;;;;;5014191;28;20018;-68
2022/05/07 01:42:33;;;;;;;110.07;55.92;;;10.60;99.90;;;;;;5013771;28;20088;-68
2022/05/07 01:45:01;;;;;;;103.05;54.17;;;10.60;99.90;;;;;;5013192;28;20037;-68
2022/05/07 01:50:10;;;;;;;108.78;52.60;;;10.60;99.90;;;;;;5018102;28;20037;-68
2022/05/07 01:52:36;;;;;;;98.00;53.45;;;10.60;99.90;;;;;;5017768;28;20038;-67
2022/05/07 01:55:01;;;;;;;97.07;53.25;;;10.60;99.90;;;;;;5017741;28;20026;-68
2022/05/07 01:57:27;;;;;;;101.85;50.85;;;10.60;99.90;;;;;;5017560;28;20521;-68
2022/05/07 01:59:52;;;;;;;87.57;51.25;;;10.60;99.90;;;;;;5017042;28;20026;-68
2022/05/07 02:02:18;;;;;;;97.32;50.42;;;10.60;99.90;;;;;;5017517;28;20029;-68
2022/05/07 02:04:43;;;;;;;100.38;51.92;;;10.60;99.90;;;;;;5017497;28;20050;-68
2022/05/07 02:07:09;;;;;;;88.78;49.28;;;10.60;99.90;;;;;;5017682;28;20065;-68
2022/05/07 02:09:38;;;;;;;94.20;49.75;;;10.60;99.90;;;;;;5018182;28;20053;-68
2022/05/07 02:12:04;;;;;;;95.30;50.35;;;10.60;99.90;;;;;;5017927;28;20037;-68
2022/05/07 02:14:29;;;;;;;88.78;47.03;;;10.70;99.90;;;;;;5017815;28;20021;-68
2022/05/07 02:16:56;;;;;;;85.43;47.40;;;10.70;99.90;;;;;;5017462;28;20029;-68
2022/05/07 02:19:21;;;;;;;94.20;48.03;;;10.70;99.90;;;;;;5016904;28;20032;-67
2022/05/07 02:21:47;;;;;;;87.50;46.97;;;10.70;99.90;;;;;;5017115;28;20100;-68
2022/05/07 02:24:12;;;;;;;87.07;47.15;;;10.70;99.90;;;;;;5017420;28;20114;-68
2022/05/07 02:26:38;;;;;;;77.93;45.60;;;10.70;99.90;;;;;;5016961;28;20033;-68
2022/05/07 02:29:04;;;;;;;92.85;49.80;;;10.70;99.90;;;;;;5016816;28;20034;-68
2022/05/07 02:31:30;;;;;;;77.20;44.45;;;10.70;99.90;;;;;;5017128;28;20036;-68
2022/05/07 02:33:55;;;;;;;86.60;46.58;;;10.70;99.90;;;;;;5016884;28;20463;-68
2022/05/07 02:36:21;;;;;;;68.32;43.55;;;10.70;99.90;;;;;;5016970;28;20029;-68
2022/05/07 02:38:46;;;;;;;80.05;44.10;;;10.70;99.90;;;;;;5016793;28;20033;-68
2022/05/07 02:43:56;;;;;;;86.45;43.45;;;10.70;99.90;;;;;;5016777;28;20098;-68
2022/05/07 02:46:22;;;;;;;72.53;42.03;;;10.80;99.90;;;;;;5016855;28;20046;-68
2022/05/07 02:48:47;;;;;;;74.53;43.42;;;10.80;99.90;;;;;;5016655;28;20103;-68
2022/05/07 02:51:13;;;;;;;77.35;42.38;;;10.80;99.90;;;;;;5016573;28;20030;-68
2022/05/07 02:53:39;;;;;;;77.13;41.25;;;10.80;99.90;;;;;;5016172;28;20018;-68
2022/05/07 02:56:04;;;;;;;83.75;43.65;;;10.80;99.90;;;;;;5016469;28;20470;-68
2022/05/07 02:58:31;;;;;;;71.60;42.20;;;10.80;99.90;;;;;;5016524;28;20065;-68
2022/05/07 03:00:57;;;;;;;80.45;41.30;;;10.80;99.90;;;;;;5015320;28;20022;-68
2022/05/07 03:03:23;;;;;;;72.57;41.53;;;10.80;99.90;;;;;;5016658;28;20099;-68
2022/05/07 03:05:48;;;;;;;80.93;43.03;;;10.90;99.90;;;;;;5015802;28;20061;-68
2022/05/07 03:08:14;;;;;;;71.82;40.10;;;10.90;99.90;;;;;;5016717;28;20524;-68
2022/05/07 03:10:39;;;;;;;69.60;41.28;;;10.90;99.90;;;;;;5016807;28;20030;-68
2022/05/07 03:13:05;;;;;;;73.93;38.40;;;10.90;99.90;;;;;;5016275;28;20033;-68
2022/05/07 03:15:32;;;;;;;75.88;39.17;;;10.90;99.90;;;;;;5015612;28;20493;-68
2022/05/07 03:17:58;;;;;;;69.57;37.35;;;10.90;99.90;;;;;;5016379;28;20108;-68
2022/05/07 03:20:24;;;;;;;65.30;37.25;;;10.90;99.90;;;;;;5016366;28;20109;-68
2022/05/07 03:22:50;;;;;;;61.50;37.17;;;10.90;99.90;;;;;;5016015;28;20033;-68
2022/05/07 03:25:15;;;;;;;72.45;41.45;;;10.90;99.90;;;;;;5016194;28;20030;-68
2022/05/07 03:27:41;;;;;;;68.95;40.40;;;10.90;99.90;;;;;;5015947;28;20362;-68
2022/05/07 03:30:07;;;;;;;72.18;38.60;;;10.90;99.90;;;;;;5015456;28;20025;-68
2022/05/07 03:32:33;;;;;;;66.03;38.00;;;10.90;99.90;;;;;;5015747;28;20033;-68
2022/05/07 03:34:59;;;;;;;86.85;42.88;;;10.90;99.90;;;;;;5015997;28;20462;-68
2022/05/07 03:37:25;;;;;;;77.18;44.78;;;10.90;99.90;;;;;;5015942;28;20029;-68
2022/05/07 03:39:52;;;;;;;71.20;43.90;;;10.90;99.90;;;;;;5015717;28;20443;-68
2022/05/07 03:42:19;;;;;;;74.70;42.85;;;10.90;99.90;;;;;;5015165;28;20033;-68
2022/05/07 03:44:48;;;;;;;75.90;43.83;;;10.90;99.90;;;;;;5015961;28;20025;-68
2022/05/07 03:47:14;;;;;;;77.65;43.22;;;10.90;99.90;;;;;;5015452;28;20058;-67
2022/05/07 03:49:39;;;;;;;76.40;43.63;;;11.00;99.90;;;;;;5015625;28;20389;-68
2022/05/07 03:54:50;;;;;;;86.07;44.75;;;11.00;99.90;;;;;;5016000;28;20033;-68
2022/05/07 03:57:16;;;;;;;84.07;47.58;;;11.00;99.90;;;;;;5014795;28;20018;-68
2022/05/07 03:59:42;;;;;;;73.60;44.75;;;11.00;99.90;;;;;;5015562;28;20032;-68
2022/05/07 04:02:09;;;;;;;80.93;45.17;;;11.10;99.90;;;;;;5015307;28;20044;-68
2022/05/07 04:04:35;;;;;;;76.63;46.17;;;11.10;99.90;;;;;;5015527;28;20030;-68
2022/05/07 04:07:01;;;;;;;77.10;45.08;;;11.10;99.90;;;;;;5014713;28;20030;-68
2022/05/07 04:09:27;;;;;;;80.55;44.03;;;11.10;99.90;;;;;;5015082;28;20116;-68
2022/05/07 04:11:52;;;;;;;83.03;46.20;;;11.10;99.90;;;;;;5015627;28;20026;-68
2022/05/07 04:14:18;;;;;;;77.22;42.85;;;11.10;99.90;;;;;;5015117;28;20037;-68
2022/05/07 04:16:45;;;;;;;90.55;47.70;;;11.10;99.90;;;;;;5014924;28;20443;-68
2022/05/07 04:19:11;;;;;;;70.65;40.97;;;11.20;99.90;;;;;;5014469;28;20018;-68
2022/05/07 04:21:38;;;;;;;85.25;44.25;;;11.20;99.90;;;;;;5014916;28;20496;-68
2022/05/07 04:24:04;;;;;;;74.70;44.45;;;11.20;99.90;;;;;;5015100;28;20069;-68
2022/05/07 04:26:30;;;;;;;77.20;42.10;;;11.20;99.90;;;;;;5014755;28;20372;-68
2022/05/07 04:28:55;;;;;;;74.53;40.97;;;11.20;99.90;;;;;;5015031;28;20036;-68
2022/05/07 04:31:21;;;;;;;73.63;41.83;;;11.20;99.90;;;;;;5014389;28;20079;-68
2022/05/07 04:33:46;;;;;;;80.78;45.35;;;11.20;99.90;;;;;;5015369;28;20105;-68
2022/05/07 04:36:12;;;;;;;81.00;46.13;;;11.20;99.90;;;;;;5015930;28;20033;-67
2022/05/07 04:38:37;;;;;;;80.95;42.80;;;11.20;99.90;;;;;;5015397;28;20053;-67
2022/05/07 04:41:03;;;;;;;80.82;44.20;;;11.20;99.90;;;;;;5014149;28;20536;-68
2022/05/07 04:43:29;;;;;;;88.70;47.17;;;11.20;99.90;;;;;;5014754;28;20108;-68
2022/05/07 04:45:54;;;;;;;74.70;41.33;;;11.20;99.90;;;;;;5014292;28;20036;-68
2022/05/07 04:48:21;;;;;;;80.53;43.17;;;11.30;99.90;;;;;;5014219;28;20056;-68
2022/05/07 04:50:47;;;;;;;78.30;44.70;;;11.30;99.90;;;;;;5014442;28;20100;-68
2022/05/07 04:53:13;;;;;;;87.57;49.65;;;11.30;99.90;;;;;;5014282;28;20030;-68
2022/05/07 04:55:38;;;;;;;75.65;43.95;;;11.30;99.90;;;;;;5014519;28;20462;-68
2022/05/07 04:58:04;;;;;;;87.03;47.28;;;11.30;99.90;;;;;;5014446;28;20414;-68
2022/05/07 05:00:29;;;;;;;86.47;50.17;;;11.40;99.90;;;;;;5014004;28;20056;-68
2022/05/07 05:02:55;;;;;;;94.72;49.63;;;11.40;99.90;;;;;;5014471;28;20493;-68
2022/05/07 05:05:20;;;;;;;83.55;47.08;;;11.40;99.90;;;;;;5014714;28;20026;-68
2022/05/07 05:07:46;;;;;;;85.45;47.15;;;11.40;99.90;;;;;;5014254;28;20057;-68
2022/05/07 05:10:12;;;;;;;90.68;49.30;;;11.40;99.90;;;;;;5014395;28;20389;-68
2022/05/07 05:12:38;;;;;;;95.20;51.42;;;11.30;99.90;;;;;;5013541;28;20457;-68
2022/05/07 05:15:08;;;;;;;93.45;49.95;;;11.40;99.90;;;;;;5014007;28;20068;-68
2022/05/07 05:17:34;;;;;;;98.90;48.65;;;11.40;99.90;;;;;;5014484;28;20026;-68
2022/05/07 05:20:01;;;;;;;111.50;54.28;;;11.50;99.90;;;;;;5013955;28;20018;-68
2022/05/07 05:22:27;;;;;;;100.30;51.65;;;11.50;99.90;;;;;;5013130;28;20112;-68
2022/05/07 05:24:53;;;;;;;87.25;49.05;;;11.50;99.90;;;;;;5013791;28;20053;-68
2022/05/07 05:27:19;;;;;;;90.97;49.22;;;11.40;99.90;;;;;;5014033;28;20057;-68
2022/05/07 05:29:44;;;;;;;95.05;50.60;;;11.40;99.90;;;;;;5014167;28;20041;-68
2022/05/07 05:32:14;;;;;;;86.75;47.70;;;11.40;99.90;;;;;;5013251;28;20379;-68
2022/05/07 05:34:39;;;;;;;100.22;52.45;;;11.40;99.90;;;;;;5014047;28;20430;-68
2022/05/07 05:37:05;;;;;;;93.28;53.35;;;11.40;99.90;;;;;;5013690;28;20033;-68
2022/05/07 05:39:30;;;;;;;99.28;52.95;;;11.50;99.90;;;;;;5013463;28;20081;-68
2022/05/07 05:41:58;;;;;;;97.28;52.72;;;11.50;99.90;;;;;;5012515;28;20018;-68
2022/05/07 05:44:23;;;;;;;89.22;50.78;;;11.50;99.90;;;;;;5013664;28;20442;-68
2022/05/07 05:46:49;;;;;;;109.30;52.65;;;11.50;99.90;;;;;;5014012;28;20068;-68
2022/05/07 05:49:14;;;;;;;104.50;54.00;;;11.60;99.90;;;;;;5013101;28;20403;-68
2022/05/07 05:51:40;;;;;;;92.75;53.28;;;11.50;99.90;;;;;;5013809;28;20034;-68
2022/05/07 05:54:05;;;;;;;95.38;52.25;;;11.60;99.90;;;;;;5028796;28;20057;-68
2022/05/07 05:56:31;;;;;;;108.72;57.30;;;11.50;99.90;;;;;;5013618;28;20018;-68
2022/05/07 05:58:57;;;;;;;103.22;54.08;;;11.60;99.90;;;;;;5013589;28;20022;-68
2022/05/07 06:01:22;;;;;;;97.07;54.42;;;11.50;99.90;;;;;;5013610;28;20026;-68
2022/05/07 06:03:48;;;;;;;93.93;53.90;;;11.60;99.90;;;;;;5013044;28;20041;-68
2022/05/07 06:06:13;;;;;;;96.55;53.13;;;11.50;99.90;;;;;;5013425;28;20053;-68
2022/05/07 06:08:39;;;;;;;92.50;52.50;;;11.60;99.90;;;;;;5013431;28;20414;-68
2022/05/07 06:11:05;;;;;;;99.97;53.70;;;11.60;99.90;;;;;;5013371;28;20026;-68
2022/05/07 06:13:32;;;;;;;100.47;52.83;;;11.60;99.90;;;;;;5013433;28;20034;-68
2022/05/07 06:15:58;;;;;;;96.22;51.25;;;11.60;99.90;;;;;;5013435;28;20022;-68
2022/05/07 06:18:25;;;;;;;91.10;47.90;;;11.70;99.90;;;;;;5012916;28;20026;-68
2022/05/07 06:20:51;;;;;;;87.65;49.53;;;11.70;99.90;;;;;;5013896;28;20489;-68
2022/05/07 06:23:17;;;;;;;89.68;48.63;;;11.80;99.90;;;;;;5013321;28;20490;-68
2022/05/07 06:28:27;;;;;;;100.95;48.42;;;11.80;99.90;;;;;;5013630;28;20040;-68
2022/05/07 06:30:53;;;;;;;94.50;45.80;;;11.80;99.90;;;;;;5012918;28;20034;-68
2022/05/07 06:33:20;;;;;;;84.68;45.83;;;11.90;99.90;;;;;;5013227;28;20033;-68
2022/05/07 06:35:49;;;;;;;78.82;44.00;;;12.00;99.90;;;;;;5016435;28;20022;-68
2022/05/07 06:38:16;;;;;;;74.90;41.08;;;12.00;99.90;;;;;;5017219;28;20025;-68
2022/05/07 06:40:42;;;;;;;85.72;41.55;;;12.00;99.90;;;;;;5016764;28;20058;-68
2022/05/07 06:43:08;;;;;;;67.35;37.65;;;11.90;99.90;;;;;;5015608;28;20026;-68
2022/05/07 06:45:33;;;;;;;76.07;38.95;;;11.90;99.90;;;;;;5016545;28;20053;-68
2022/05/07 06:47:59;;;;;;;75.13;37.53;;;11.90;99.90;;;;;;5017043;28;20038;-68
2022/05/07 06:50:25;;;;;;;72.25;31.42;;;11.90;99.90;;;;;;5016224;28;20100;-68
2022/05/07 06:52:51;;;;;;;63.78;33.33;;;11.90;99.90;;;;;;5016563;28;20112;-68
2022/05/07 06:55:18;;;;;;;55.83;29.52;;;11.90;99.90;;;;;;5016708;28;20021;-68
2022/05/07 06:57:45;;;;;;;56.20;28.05;;;12.00;99.90;;;;;;5016754;28;20018;-68
2022/05/07 07:00:13;;;;;;;64.13;27.85;;;12.00;99.90;;;;;;5016872;28;20018;-68
2022/05/07 07:02:40;;;;;;;63.80;30.45;;;12.00;99.90;;;;;;5017280;28;20034;-68
2022/05/07 07:05:06;;;;;;;43.65;24.17;;;12.10;99.90;;;;;;5016460;28;20030;-68
2022/05/07 07:07:32;;;;;;;48.45;26.00;;;12.10;99.90;;;;;;5016242;28;20053;-68
2022/05/07 07:09:58;;;;;;;52.03;23.60;;;12.10;99.90;;;;;;5016154;28;20061;-68
2022/05/07 07:12:24;;;;;;;42.63;23.98;;;12.10;99.90;;;;;;5016216;28;20076;-68
2022/05/07 07:14:50;;;;;;;50.38;24.58;;;12.10;99.90;;;;;;5016260;28;20022;-68
2022/05/07 07:17:17;;;;;;;43.65;21.88;;;12.10;99.90;;;;;;5016238;28;20429;-68
2022/05/07 07:19:43;;;;;;;36.33;20.00;;;12.20;99.90;;;;;;5016235;28;20046;-68
2022/05/07 07:22:09;;;;;;;28.83;16.48;;;12.30;99.90;;;;;;5015598;28;20034;-68
2022/05/07 07:24:35;;;;;;;25.55;15.80;;;12.40;99.90;;;;;;5016279;28;20029;-68
2022/05/07 07:27:01;;;;;;;26.38;15.32;;;12.70;99.90;;;;;;5015913;28;20025;-68
2022/05/07 07:29:27;;;;;;;22.88;13.27;;;12.80;99.90;;;;;;5016268;28;20049;-68
2022/05/07 07:31:52;;;;;;;17.60;11.32;;;13.00;99.90;;;;;;5015355;28;20471;-68
2022/05/07 07:34:18;;;;;;;15.80;11.18;;;12.90;99.90;;;;;;5016162;28;20371;-68
2022/05/07 07:36:44;;;;;;;16.17;11.38;;;13.10;99.90;;;;;;5015745;28;20020;-68
2022/05/07 07:39:10;;;;;;;15.68;10.15;;;13.20;99.90;;;;;;5016086;28;20033;-68
2022/05/07 07:41:36;;;;;;;20.20;11.20;;;13.30;99.90;;;;;;5015968;28;20026;-68
2022/05/07 07:44:02;;;;;;;14.75;10.18;;;13.40;99.90;;;;;;5015185;28;20129;-68
2022/05/07 07:49:11;;;;;;;19.77;10.65;;;13.70;99.90;;;;;;5015794;28;20033;-68
2022/05/07 07:51:37;;;;;;;13.55;9.70;;;13.80;99.90;;;;;;5016011;28;20374;-68
2022/05/07 07:54:04;;;;;;;12.00;9.18;;;14.00;99.90;;;;;;5014902;28;20037;-68
2022/05/07 07:56:29;;;;;;;13.82;9.15;;;14.00;99.90;;;;;;5015453;28;20021;-68
2022/05/07 07:58:55;;;;;;;14.50;9.93;;;14.00;99.90;;;;;;5015353;28;20109;-68
2022/05/07 08:01:20;;;;;;;14.75;10.15;;;14.00;99.90;;;;;;5015385;28;20386;-68
2022/05/07 08:03:46;;;;;;;13.05;9.05;;;14.00;99.90;;;;;;5014838;28;20069;-68
2022/05/07 08:06:12;;;;;;;8.65;7.70;;;14.10;99.90;;;;;;5015168;28;20072;-68
2022/05/07 08:14:09;;;;;;;11.38;9.10;;;14.10;99.90;;;;;;5015000;28;20003;-68
2022/05/07 08:16:35;;;;;;;11.98;8.68;;;14.20;99.90;;;;;;5015016;28;20026;-68
2022/05/07 08:19:03;;;;;;;13.52;8.57;;;14.20;99.90;;;;;;5015385;28;20049;-68
2022/05/07 08:21:29;;;;;;;10.00;8.50;;;14.40;99.90;;;;;;5015841;28;20025;-68
2022/05/07 08:23:55;;;;;;;15.02;8.77;;;14.50;99.90;;;;;;5014934;28;20060;-68
2022/05/07 08:26:21;;;;;;;11.43;8.32;;;14.70;99.90;;;;;;5015053;28;20417;-68
2022/05/07 08:28:46;;;;;;;13.00;8.30;;;14.80;99.90;;;;;;5014794;28;20022;-73
2022/05/07 08:31:12;;;;;;;10.95;6.93;;;15.00;99.90;;;;;;5015873;28;20034;-72
2022/05/07 08:33:42;;;;;;;11.15;8.40;;;15.20;99.90;;;;;;5015066;28;20029;-69
2022/05/07 08:36:08;;;;;;;13.40;7.97;;;15.20;99.90;;;;;;5015119;28;20041;-72
2022/05/07 08:38:34;;;;;;;14.45;8.48;;;15.40;99.90;;;;;;5014400;28;20097;-68
2022/05/07 08:41:00;;;;;;;15.18;8.35;;;15.40;99.90;;;;;;5014603;28;20049;-68
2022/05/07 08:43:36;;;;;;;12.95;8.32;;;15.40;99.90;;;;;;5014521;28;20406;-68
2022/05/07 08:46:08;;;;;;;14.93;7.68;;;15.40;99.90;;;;;;5014496;28;20033;-68
2022/05/07 08:48:34;;;;;;;14.20;8.63;;;15.40;99.90;;;;;;5014231;28;20026;-68
2022/05/07 08:51:01;;;;;;;15.10;7.90;;;15.70;99.90;;;;;;5014369;28;20034;-68
2022/05/07 08:53:27;;;;;;;12.95;6.72;;;15.50;99.90;;;;;;5014349;28;20537;-68
2022/05/07 08:55:56;;;;;;;13.23;7.38;;;15.60;99.90;;;;;;5014271;28;20029;-68
2022/05/07 08:58:22;;;;;;;13.80;7.65;;;15.70;99.90;;;;;;5013004;28;20026;-68
2022/05/07 09:00:47;;;;;;;17.45;7.75;;;15.90;99.90;;;;;;5014285;28;20026;-68
2022/05/07 09:03:17;;;;;;;16.00;8.65;;;15.90;99.90;;;;;;5014150;28;20036;-68
2022/05/07 09:05:43;;;;;;;14.80;6.63;;;16.10;99.90;;;;;;5014612;28;20470;-68
2022/05/07 09:08:12;;;;;;;14.48;6.35;;;16.10;99.90;;;;;;5013637;28;20037;-68
2022/05/07 09:10:39;;;;;;;17.52;7.68;;;16.20;99.90;;;;;;5014414;28;20068;-68
2022/05/07 09:13:14;;;;;;;17.80;7.32;;;16.30;99.90;;;;;;5013937;28;20568;-68
2022/05/07 09:16:00;;;;;;;14.85;7.13;;;16.40;99.90;;;;;;5014145;28;20030;-68
2022/05/07 09:18:28;;;;;;;12.48;6.45;;;16.30;99.90;;;;;;5014359;28;20026;-68
2022/05/07 09:21:26;;;;;;;19.00;7.00;;;16.30;99.90;;;;;;5013450;28;20021;-67
2022/05/07 09:23:58;;;;;;;10.30;6.07;;;16.40;99.90;;;;;;5014740;28;20106;-67
2022/05/07 09:26:35;;;;;;;18.58;7.22;;;16.60;99.90;;;;;;5014391;28;20467;-67
2022/05/07 09:29:03;;;;;;;12.07;4.07;;;17.10;99.90;;;;;;5013565;28;20029;-68
2022/05/07 09:31:30;;;;;;;9.93;4.25;;;17.20;99.90;;;;;;5013724;28;20026;-68
2022/05/07 09:35:47;;;;;;;11.02;5.05;;;17.30;99.90;;;;;;5013706;28;20018;-68
2022/05/07 09:36:44;;;;;;;15.55;5.28;;;17.40;99.90;;;;;;5013353;28;20498;-68
2022/05/07 09:39:14;;;;;;;10.55;3.83;;;17.50;99.90;;;;;;5013813;28;20389;-67
2022/05/07 09:41:43;;;;;;;10.20;3.30;;;17.60;99.90;;;;;;5013906;28;20030;-67
2022/05/07 09:44:10;;;;;;;9.35;3.78;;;17.50;99.90;;;;;;5013882;28;20025;-67
2022/05/07 09:46:38;;;;;;;11.57;3.28;;;17.60;99.90;;;;;;5013547;28;20518;-67
2022/05/07 09:49:05;;;;;;;7.25;3.47;;;17.40;99.90;;;;;;5013525;28;20038;-67
2022/05/07 09:51:31;;;;;;;18.38;4.00;;;17.20;99.90;;;;;;5013498;28;20470;-67
2022/05/07 09:59:28;;;;;;;13.82;3.38;;;17.00;99.90;;;;;;5013107;28;20654;-67
2022/05/07 10:02:08;;;;;;;8.93;2.70;;;17.00;99.90;;;;;;5012908;28;20156;-68
2022/05/07 10:04:55;;;;;;;10.23;3.30;;;16.80;99.90;;;;;;5013572;28;20434;-68
2022/05/07 10:07:42;;;;;;;8.38;2.85;;;17.00;99.90;;;;;;5012886;28;20052;-68
2022/05/07 10:10:18;;;;;;;11.75;3.97;;;17.40;99.90;;;;;;5015354;28;20392;-68
2022/05/07 10:12:47;;;;;;;7.53;3.25;;;17.50;99.90;;;;;;5017821;28;20060;-68
2022/05/07 10:15:20;;;;;;;9.95;4.00;;;17.60;99.90;;;;;;5017129;28;20466;-67
2022/05/07 10:18:04;;;;;;;10.55;2.83;;;17.70;99.90;;;;;;5017264;28;20470;-67
2022/05/07 10:20:43;;;;;;;13.35;2.63;;;18.10;99.90;;;;;;5016846;28;20030;-67
2022/05/07 10:23:12;;;;;;;10.52;3.75;;;18.30;99.90;;;;;;5017337;28;20430;-67
2022/05/07 10:25:39;;;;;;;9.80;2.53;;;18.20;99.90;;;;;;5017255;28;20125;-67
2022/05/07 10:28:15;;;;;;;9.50;2.75;;;18.20;99.90;;;;;;5017058;28;20050;-67
2022/05/07 10:30:56;;;;;;;7.78;2.65;;;18.20;99.90;;;;;;5017236;28;20073;-67
2022/05/07 10:33:22;;;;;;;10.93;2.80;;;18.00;99.90;;;;;;5016872;28;20036;-67
2022/05/07 10:36:06;;;;;;;9.35;3.58;;;17.90;99.90;;;;;;5016853;28;20018;-67
2022/05/07 10:38:39;;;;;;;3.90;2.42;;;17.90;99.90;;;;;;5017446;28;20017;-67
2022/05/07 10:41:20;;;;;;;7.38;2.35;;;17.50;99.90;;;;;;5017124;28;20478;-67
2022/05/07 10:43:47;;;;;;;8.00;2.50;;;17.30;99.90;;;;;;5016477;28;20022;-67
2022/05/07 10:46:16;;;;;;;8.38;2.22;;;17.20;99.90;;;;;;5016553;28;20030;-67
2022/05/07 10:48:47;;;;;;;7.90;3.03;;;17.40;99.90;;;;;;5016926;28;20026;-67
2022/05/07 10:51:38;;;;;;;12.30;3.13;;;17.70;99.90;;;;;;5016792;28;20097;-67
2022/05/07 10:54:18;;;;;;;10.02;3.63;;;17.90;99.90;;;;;;5016634;28;20018;-67
2022/05/07 10:56:51;;;;;;;6.45;2.97;;;17.80;99.90;;;;;;5016738;28;20022;-67
2022/05/07 10:59:17;;;;;;;;;;;17.90;99.90;;;;;;5018157;28;20050;-67
2022/05/07 11:01:43;;;;;;;12.00;3.42;;;18.10;99.90;;;;;;5016556;28;19906;-67
2022/05/07 11:04:12;;;;;;;19.35;4.45;;;18.30;99.90;;;;;;5016491;28;20037;-67
2022/05/07 11:06:42;;;;;;;11.07;3.65;;;18.20;99.90;;;;;;5015976;28;20032;-67
2022/05/07 11:09:14;;;;;;;16.27;5.07;;;18.00;99.90;;;;;;5016258;28;20478;-67
2022/05/07 11:11:44;;;;;;;12.80;3.25;;;18.00;99.90;;;;;;5016496;28;20034;-67
2022/05/07 11:14:10;;;;;;;9.57;3.40;;;18.20;99.90;;;;;;5016214;28;20022;-67
2022/05/07 11:16:41;;;;;;;9.18;3.72;;;18.30;99.90;;;;;;5016332;28;20025;-67
2022/05/07 11:19:07;;;;;;;15.80;3.22;;;18.50;99.90;;;;;;5015941;28;20028;-67
2022/05/07 11:21:36;;;;;;;9.45;3.20;;;18.40;99.90;;;;;;5015304;28;20030;-67
2022/05/07 11:24:02;;;;;;;12.30;3.83;;;18.80;99.90;;;;;;5015992;28;20053;-67
2022/05/07 11:26:28;;;;;;;15.88;4.50;;;18.70;99.90;;;;;;5016685;28;20119;-67
2022/05/07 11:28:54;;;;;;;9.75;3.35;;;18.80;99.90;;;;;;5016396;28;20058;-67
2022/05/07 11:31:30;;;;;;;9.10;3.17;;;18.60;99.90;;;;;;5015371;28;20479;-67
2022/05/07 11:34:03;;;;;;;12.95;3.08;;;18.40;99.90;;;;;;5016129;28;20026;-67
2022/05/07 11:36:29;;;;;;;14.83;3.93;;;18.50;99.90;;;;;;5015683;28;20510;-67
2022/05/07 11:38:59;;;;;;;13.32;4.03;;;18.50;99.90;;;;;;5015699;28;20276;-67
2022/05/07 11:41:25;;;;;;;17.60;4.45;;;18.20;99.90;;;;;;5016145;28;20017;-68
2022/05/07 11:46:50;;;;;;;13.15;3.40;;;18.20;99.90;;;;;;5036507;23;20447;-67
2022/05/07 11:49:25;;;;;;;13.80;3.47;;;18.40;99.90;;;;;;5015634;28;20358;-67
2022/05/07 11:51:51;;;;;;;10.35;3.58;;;18.90;99.90;;;;;;5016058;28;20030;-67
2022/05/07 11:54:18;;;;;;;20.63;4.55;;;19.00;99.90;;;;;;5016063;28;20030;-67
2022/05/07 11:56:46;;;;;;;9.80;3.38;;;18.80;99.90;;;;;;5014882;28;20028;-67
2022/05/07 11:59:14;;;;;;;15.05;4.18;;;19.00;99.90;;;;;;5015941;28;20029;-67
2022/05/07 12:01:40;;;;;;;18.52;5.07;;;19.10;99.90;;;;;;5015557;28;20038;-67
2022/05/07 12:04:09;;;;;;;12.90;4.38;;;19.00;99.90;;;;;;5014807;28;20110;-67
2022/05/07 12:06:35;;;;;;;15.05;4.78;;;19.40;99.90;;;;;;5015163;28;20030;-67
2022/05/07 12:09:15;;;;;;;18.50;4.55;;;19.50;99.90;;;;;;5015276;28;20489;-67
2022/05/07 12:11:42;;;;;;;9.68;3.35;;;19.60;99.90;;;;;;5015369;28;20029;-67
2022/05/07 12:14:08;;;;;;;11.55;3.47;;;19.50;99.90;;;;;;5015377;28;20026;-67
2022/05/07 12:19:32;;;;;;;9.15;4.82;;;19.00;99.90;;;;;;5015063;28;20492;-67
2022/05/07 12:30:12;;;;;;;;;;;19.90;99.90;;;;;;5015210;28;20172;-67
2022/05/07 12:32:39;;;;;;;13.07;4.35;;;19.90;99.90;;;;;;5014746;28;19945;-67
2022/05/07 12:35:06;;;;;;;10.50;3.60;;;19.40;99.90;;;;;;5015108;28;20033;-67
2022/05/07 12:37:32;;;;;;;10.65;4.00;;;19.10;99.90;;;;;;5014548;28;20049;-67
2022/05/07 12:39:58;;;;;;;18.40;4.80;;;18.70;99.90;;;;;;5014964;28;20029;-67
2022/05/07 12:42:24;;;;;;;16.33;4.57;;;18.30;99.90;;;;;;5014640;28;20042;-67
2022/05/07 12:44:49;;;;;;;11.27;4.28;;;18.50;99.90;;;;;;5013979;28;20528;-67
2022/05/07 12:47:18;;;;;;;16.48;4.43;;;19.20;99.90;;;;;;5014449;28;20041;-67
2022/05/07 12:49:43;;;;;;;14.38;3.88;;;19.60;99.90;;;;;;5014734;28;20095;-67
2022/05/07 12:52:09;;;;;;;8.70;3.38;;;20.00;99.90;;;;;;5014849;28;20453;-67
2022/05/07 12:54:36;;;;;;;7.07;3.40;;;20.20;99.90;;;;;;5014142;28;20022;-67
2022/05/07 12:57:02;;;;;;;20.90;3.78;;;19.90;99.90;;;;;;5014253;28;20022;-67
2022/05/07 12:59:27;;;;;;;13.80;3.65;;;20.00;99.90;;;;;;5014563;28;20026;-67
2022/05/07 13:01:53;;;;;;;9.05;3.80;;;20.50;99.90;;;;;;5014530;28;20501;-67
2022/05/07 13:04:21;;;;;;;12.20;4.38;;;20.70;99.90;;;;;;5013922;28;20033;-67
2022/05/07 13:06:46;;;;;;;9.00;3.10;;;20.50;99.90;;;;;;5014485;28;20064;-67
2022/05/07 13:09:12;;;;;;;10.20;3.47;;;20.30;99.90;;;;;;5014404;28;20480;-67
2022/05/07 13:11:38;;;;;;;11.68;3.40;;;19.80;99.90;;;;;;5014246;28;20056;-67
2022/05/07 13:14:04;;;;;;;12.07;4.35;;;19.60;99.90;;;;;;5014319;28;20022;-67
2022/05/07 13:16:29;;;;;;;13.85;3.70;;;19.90;99.90;;;;;;5013799;28;20049;-67